Time;durP1;ratioP1;P1;durP2;ratioP2;P2;SDS_P1;SDS_P2;PMS_P1;PMS_P2;Temp;Humidity;BMP_temperature;BMP_pressure;BME280_temperature;BME280_humidity;BME280_pressure;Samples;Min_cycle;Max_cycle;Signal;HPM_P1;HPM_P2
2021/06/29 00:02:37;;;;;;;6.07;4.90;;;;;;;26.66;55.47;100931.80;127209;1097;64204;-84
2021/06/29 00:05:50;;;;;;;5.27;4.40;;;;;;;26.70;55.55;100930.52;127254;1096;64183;-84
2021/06/29 00:08:37;;;;;;;6.00;4.63;;;;;;;26.71;55.61;100930.39;127268;1096;64304;-85
2021/06/29 00:11:28;;;;;;;6.13;4.70;;;;;;;26.72;55.53;100937.53;127286;1096;64461;-83
2021/06/29 00:14:38;;;;;;;6.70;4.53;;;;;;;26.72;55.42;100923.11;127293;1096;64228;-84
2021/06/29 00:17:21;;;;;;;5.50;4.77;;;;;;;26.71;55.42;100918.69;127276;1096;64239;-84
2021/06/29 00:20:44;;;;;;;5.70;4.50;;;;;;;26.70;55.48;100922.39;127668;1093;64295;-85
2021/06/29 00:23:40;;;;;;;;;;;;;;;;;;;;;
2021/06/29 00:26:33;;;;;;;5.60;4.60;;;;;;;26.67;55.48;100918.11;127656;1093;64240;-84
2021/06/29 00:29:28;;;;;;;6.53;4.57;;;;;;;26.66;55.63;100927.23;127699;1090;64112;-83
2021/06/29 00:32:24;;;;;;;5.87;4.80;;;;;;;26.65;55.34;100921.96;127707;1093;64300;-85
2021/06/29 00:35:11;;;;;;;5.70;4.80;;;;;;;26.63;55.50;100921.23;127307;1093;64153;-84
2021/06/29 00:38:00;;;;;;;6.47;4.97;;;;;;;26.63;55.77;100923.94;127356;1093;64115;-84
2021/06/29 00:40:40;;;;;;;6.00;4.67;;;;;;;26.63;55.60;100923.94;127311;1092;64150;-84
2021/06/29 00:43:27;;;;;;;6.07;4.73;;;;;;;26.66;55.75;100920.97;127387;1093;64637;-84
2021/06/29 00:46:19;;;;;;;6.83;4.90;;;;;;;26.67;55.83;100919.95;127350;1093;64147;-85
2021/06/29 00:49:26;;;;;;;6.07;4.70;;;;;;;26.69;55.80;100918.81;127454;1093;64156;-84
2021/06/29 00:52:19;;;;;;;5.60;4.70;;;;;;;26.71;55.72;100918.69;127381;1093;64166;-84
2021/06/29 00:54:56;;;;;;;;;;;;;;;;;;;;;
2021/06/29 00:57:55;;;;;;;7.00;5.10;;;;;;;26.71;55.67;100919.56;127435;1093;64396;-84
2021/06/29 01:00:51;;;;;;;7.03;4.97;;;;;;;26.71;55.69;100913.27;127322;1093;65108;-84
2021/06/29 01:03:43;;;;;;;6.03;4.50;;;;;;;26.70;55.68;100915.11;127485;1089;64108;-83
2021/06/29 01:06:56;;;;;;;6.53;4.90;;;;;;;26.68;55.86;100911.67;127716;1089;64287;-84
2021/06/29 01:09:40;;;;;;;7.00;5.00;;;;;;;26.66;55.51;100908.27;127738;1088;64221;-83
2021/06/29 01:12:41;;;;;;;6.20;4.80;;;;;;;26.65;55.50;100906.55;127817;1090;64298;-84
2021/06/29 01:15:33;;;;;;;5.10;4.40;;;;;;;26.63;55.58;100905.86;127890;1089;64250;-84
2021/06/29 01:18:40;;;;;;;;;;;;;;;;;;;;;
2021/06/29 01:21:41;;;;;;;6.40;4.90;;;;;;;26.60;55.62;100912.42;127745;1090;64214;-84
2021/06/29 01:24:33;;;;;;;6.93;4.83;;;;;;;26.59;55.69;100917.98;127690;1090;64298;-84
2021/06/29 01:33:10;;;;;;;;;;;;;;;;;;;;;
2021/06/29 01:35:59;;;;;;;;;;;;;;;;;;;;;
2021/06/29 01:39:14;;;;;;;6.57;4.90;;;;;;;26.70;56.03;100904.27;127699;1090;64394;-84
2021/06/29 01:42:27;;;;;;;5.93;4.73;;;;;;;26.71;55.75;100899.73;127707;1090;63962;-83
2021/06/29 01:45:29;;;;;;;6.30;4.87;;;;;;;26.71;55.69;100899.73;127334;1092;64150;-85
2021/06/29 01:49:24;;;;;;;;;;;;;;;;;;;;;
2021/06/29 01:52:11;;;;;;;6.60;4.93;;;;;;;26.68;55.57;100898.13;126377;1100;63735;-83
2021/06/29 01:55:22;;;;;;;6.83;5.03;;;;;;;26.68;55.70;100905.41;126373;1100;63977;-86
2021/06/29 01:58:08;;;;;;;5.83;4.97;;;;;;;26.66;55.80;100896.60;126584;1100;64125;-84
2021/06/29 02:00:55;;;;;;;5.80;4.80;;;;;;;26.65;55.85;100903.01;127177;1098;64298;-84
2021/06/29 02:03:41;;;;;;;6.40;4.90;;;;;;;26.63;55.84;100899.58;127151;1098;64659;-83
2021/06/29 02:06:42;;;;;;;;;;;;;;;;;;;;;
2021/06/29 02:09:14;;;;;;;6.13;4.90;;;;;;;26.60;55.59;100898.00;127175;1096;64352;-84
2021/06/29 02:12:21;;;;;;;6.50;4.50;;;;;;;26.60;56.03;100893.47;127176;1095;64300;-84
2021/06/29 02:15:42;;;;;;;6.07;4.83;;;;;;;26.63;55.99;100896.87;127167;1096;64128;-86
2021/06/29 02:18:42;;;;;;;;;;;;;;;;;;;;;
2021/06/29 02:21:19;;;;;;;;;;;;;;;;;;;;;
2021/06/29 02:24:01;;;;;;;5.87;4.60;;;;;;;26.68;55.99;100906.26;127745;1090;64152;-84
2021/06/29 02:26:51;;;;;;;6.17;4.90;;;;;;;26.69;55.85;100907.13;127897;1090;64141;-85
2021/06/29 02:30:18;;;;;;;6.03;4.88;;;;;;;26.69;55.74;100905.27;128267;1086;64152;-85
2021/06/29 02:32:53;;;;;;;7.05;4.85;;;;;;;26.68;55.92;100903.55;127938;1086;64159;-83
2021/06/29 02:36:00;;;;;;;6.63;5.00;;;;;;;26.68;55.91;100913.54;127709;1090;64215;-85
2021/06/29 02:38:57;;;;;;;;;;;;;;;;;;;;;
2021/06/29 02:41:50;;;;;;;6.00;4.73;;;;;;;26.65;55.80;100917.39;127710;1088;64131;-84
2021/06/29 02:44:43;;;;;;;6.50;4.90;;;;;;;26.64;55.93;100912.12;127733;1089;64847;-84
2021/06/29 02:47:40;;;;;;;7.17;4.50;;;;;;;26.60;55.68;100909.71;127720;1089;64147;-83
2021/06/29 02:51:12;;;;;;;;;;;;;;;;;;;;;
2021/06/29 02:54:39;;;;;;;6.57;4.80;;;;;;;26.58;56.02;100917.11;127445;1093;64249;-84
2021/06/29 02:57:23;;;;;;;6.03;4.33;;;;;;;26.61;56.01;100921.38;127281;1097;64232;-84
2021/06/29 03:00:47;;;;;;;5.87;4.50;;;;;;;26.64;56.33;100923.80;127169;1096;64264;-85
2021/06/29 03:04:08;;;;;;;6.17;4.53;;;;;;;26.66;56.24;100927.23;127263;1097;64470;-84
2021/06/29 03:07:07;;;;;;;5.80;4.63;;;;;;;26.70;56.20;100925.09;127110;1098;64470;-84
2021/06/29 03:10:10;;;;;;;5.67;4.67;;;;;;;26.72;56.05;100928.53;127140;1100;64237;-85
2021/06/29 03:13:14;;;;;;;6.27;5.03;;;;;;;26.72;56.07;100923.11;127128;1096;63987;-84
2021/06/29 03:15:54;;;;;;;6.45;5.10;;;;;;;26.72;55.94;100925.82;127176;1096;64323;-84
2021/06/29 03:18:54;;;;;;;5.77;4.90;;;;;;;26.70;55.90;100925.94;126381;1099;64413;-84
2021/06/29 03:21:43;;;;;;;6.90;5.13;;;;;;;26.70;56.03;100922.39;126394;1100;64189;-84
2021/06/29 03:24:56;;;;;;;8.57;5.77;;;;;;;26.69;55.97;100928.80;126266;1102;64148;-84
2021/06/29 03:28:06;;;;;;;;;;;;;;;;;;;;;
2021/06/29 03:31:18;;;;;;;7.97;5.03;;;;;;;26.66;56.06;100931.80;126018;1098;64198;-84
2021/06/29 03:34:08;;;;;;;6.03;5.10;;;;;;;26.63;56.09;100929.36;125976;1100;63968;-84
2021/06/29 03:37:33;;;;;;;6.80;5.37;;;;;;;26.62;56.09;100933.05;126295;1098;64163;-85
2021/06/29 03:41:01;;;;;;;6.50;5.20;;;;;;;26.60;56.17;100930.50;125826;1103;64200;-85
2021/06/29 03:44:08;;;;;;;6.75;5.60;;;;;;;26.61;56.30;100943.04;125885;1103;64314;-83
2021/06/29 03:46:55;;;;;;;7.10;5.60;;;;;;;26.65;56.27;100938.20;125837;1105;64167;-84
2021/06/29 03:50:31;;;;;;;7.47;5.73;;;;;;;26.66;56.23;100943.47;125840;1104;64202;-84
2021/06/29 03:53:32;;;;;;;;;;;;;;;;;;;;;
2021/06/29 03:56:43;;;;;;;7.70;6.20;;;;;;;26.70;56.19;100944.05;125816;1105;64164;-85
2021/06/29 03:59:54;;;;;;;;;;;;;;;;;;;;;
2021/06/29 04:02:42;;;;;;;;;;;;;;;;;;;;;
2021/06/29 04:05:54;;;;;;;8.57;6.77;;;;;;;26.68;55.83;100944.16;125880;1103;64796;-85
2021/06/29 04:08:30;;;;;;;10.20;7.03;;;;;;;26.68;55.64;100946.03;125966;1103;64198;-84
2021/06/29 04:11:11;;;;;;;8.73;6.87;;;;;;;26.67;55.74;100938.90;126294;1103;64188;-84
2021/06/29 04:14:38;;;;;;;11.57;7.63;;;;;;;26.65;55.67;100935.50;126332;1103;64309;-84
2021/06/29 04:17:24;;;;;;;9.33;7.30;;;;;;;26.64;55.77;100941.91;126634;1100;64160;-83
2021/06/29 04:19:59;;;;;;;9.23;7.10;;;;;;;26.62;55.54;100938.47;126669;1100;64494;-84
2021/06/29 04:23:14;;;;;;;9.00;6.87;;;;;;;26.60;55.55;100935.91;127181;1097;63974;-84
2021/06/29 04:26:22;;;;;;;;;;;;;;;;;;;;;
2021/06/29 04:29:35;;;;;;;;;;;;;;;;;;;;;
2021/06/29 04:32:32;;;;;;;10.20;7.03;;;;;;;26.56;55.59;100935.36;127181;1098;65018;-83
2021/06/29 04:35:27;;;;;;;9.53;6.67;;;;;;;26.56;55.40;100937.20;127207;1099;64158;-85
2021/06/29 04:38:51;;;;;;;7.55;6.33;;;;;;;26.54;55.45;100925.67;127142;1100;64604;-83
2021/06/29 04:41:59;;;;;;;;;;;;;;;;;;;;;
2021/06/29 04:44:37;;;;;;;7.40;5.53;;;;;;;26.53;55.30;100930.21;127145;1100;64405;-83
2021/06/29 04:47:53;;;;;;;7.37;5.60;;;;;;;26.53;55.22;100923.95;127152;1098;64175;-84
2021/06/29 04:50:23;;;;;;;8.80;5.97;;;;;;;26.53;55.13;100927.50;127143;1100;64118;-84
2021/06/29 04:53:31;;;;;;;;;;;;;;;;;;;;;
2021/06/29 04:56:28;;;;;;;10.50;5.87;;;;;;;26.55;55.10;100932.77;125899;1103;64243;-84
2021/06/29 04:59:15;;;;;;;7.80;5.97;;;;;;;26.54;54.88;100931.09;125862;1101;64188;-84
2021/06/29 05:02:01;;;;;;;7.20;5.57;;;;;;;26.54;54.74;100929.22;125811;1102;64185;-84
2021/06/29 05:04:47;;;;;;;10.17;5.77;;;;;;;26.53;54.68;100927.50;127103;1098;64387;-84
2021/06/29 05:08:17;;;;;;;9.00;5.97;;;;;;;26.55;54.63;100921.94;127059;1100;64346;-84
2021/06/29 05:11:04;;;;;;;10.00;6.35;;;;;;;26.56;55.05;100927.24;126278;1100;64166;-83
2021/06/29 05:13:58;;;;;;;9.37;6.70;;;;;;;26.56;54.58;100934.48;126309;1098;64202;-84
2021/06/29 05:16:33;;;;;;;11.13;7.00;;;;;;;26.56;54.68;100932.66;126256;1101;64390;-84
2021/06/29 05:19:19;;;;;;;9.67;6.60;;;;;;;26.56;54.57;100932.66;126301;1102;64194;-84
2021/06/29 05:22:01;;;;;;;9.30;6.67;;;;;;;26.56;54.56;100929.95;126313;1103;64224;-84
2021/06/29 05:24:36;;;;;;;10.67;7.00;;;;;;;26.58;54.55;100929.80;126218;1101;64145;-84
2021/06/29 05:27:23;;;;;;;11.53;7.43;;;;;;;26.57;54.45;100926.22;126185;1098;62663;-83
2021/06/29 05:30:03;;;;;;;9.30;7.57;;;;;;;26.59;54.80;100936.94;126217;1100;64336;-84
2021/06/29 05:33:05;;;;;;;8.27;7.07;;;;;;;26.59;54.76;100932.36;126393;1100;64288;-83
2021/06/29 05:35:57;;;;;;;10.20;7.30;;;;;;;26.61;54.69;100934.92;127080;1100;64179;-83
2021/06/29 05:39:15;;;;;;;9.50;7.17;;;;;;;26.62;54.71;100930.34;127096;1100;64192;-83
2021/06/29 05:42:24;;;;;;;10.50;7.10;;;;;;;26.63;54.60;100935.65;127097;1098;64472;-84
2021/06/29 05:45:15;;;;;;;11.00;7.00;;;;;;;26.63;54.62;100930.23;126295;1100;64208;-84
2021/06/29 05:48:02;;;;;;;9.93;7.03;;;;;;;26.63;54.46;100930.23;126392;1103;64136;-84
2021/06/29 05:50:37;;;;;;;9.57;7.07;;;;;;;26.65;54.42;100933.63;126331;1098;64444;-85
2021/06/29 05:53:21;;;;;;;12.40;8.93;;;;;;;26.65;54.57;100936.34;126461;1098;64124;-84
2021/06/29 05:55:54;;;;;;;13.07;9.13;;;;;;;26.67;54.55;100941.61;126530;1100;64312;-84
2021/06/29 05:58:56;;;;;;;12.67;9.33;;;;;;;26.67;54.40;100942.48;126986;1098;64188;-84
2021/06/29 06:01:41;;;;;;;14.83;9.60;;;;;;;26.68;54.56;100946.03;127059;1099;64412;-84
2021/06/29 06:04:30;;;;;;;14.20;9.70;;;;;;;26.68;54.29;100951.45;127048;1098;64243;-84
2021/06/29 06:06:59;;;;;;;15.53;8.73;;;;;;;26.68;54.50;100949.58;126999;1098;64275;-83
2021/06/29 06:09:46;;;;;;;12.67;8.83;;;;;;;26.69;54.57;100942.34;126270;1099;64163;-83
2021/06/29 06:12:33;;;;;;;13.27;8.87;;;;;;;26.70;54.50;100953.02;126307;1098;64159;-84
2021/06/29 06:15:31;;;;;;;;;;;;;;;;;;;;;
2021/06/29 06:18:49;;;;;;;;;;;;;;;;;;;;;
2021/06/29 06:21:34;;;;;;;13.10;8.50;;;;;;;26.72;54.65;100950.19;126373;1100;64265;-83
2021/06/29 06:24:20;;;;;;;12.13;8.33;;;;;;;26.72;54.45;100942.95;126886;1098;64371;-80
2021/06/29 06:26:58;;;;;;;;;;;;;;;;;;;;;
2021/06/29 06:29:32;;;;;;;13.43;9.00;;;;;;;26.74;54.46;100953.63;127151;1095;64298;-83
2021/06/29 06:32:03;;;;;;;15.53;9.10;;;;;;;26.75;54.42;100953.48;127255;1096;63971;-83
2021/06/29 06:34:39;;;;;;;16.27;8.97;;;;;;;26.76;54.53;100947.07;127228;1096;64201;-83
2021/06/29 06:37:47;;;;;;;;;;;;;;;;;;;;;
2021/06/29 06:40:17;;;;;;;13.15;9.05;;;;;;;26.76;54.32;100947.07;127283;1096;64238;-82
2021/06/29 06:42:46;;;;;;;14.47;9.27;;;;;;;26.77;54.41;100950.63;127174;1095;64141;-82
2021/06/29 06:45:25;;;;;;;15.03;8.77;;;;;;;26.78;54.41;100955.05;127237;1097;64585;-83
2021/06/29 06:48:03;;;;;;;15.10;8.87;;;;;;;26.77;54.49;100945.20;127481;1093;64231;-83
2021/06/29 06:50:52;;;;;;;14.90;8.83;;;;;;;26.78;54.50;100946.05;127627;1092;64313;-83
2021/06/29 06:53:58;;;;;;;;;;;;;;;;;;;;;
2021/06/29 06:56:56;;;;;;;;;;;;;;;;;;;;;
2021/06/29 06:59:45;;;;;;;11.88;7.83;;;;;;;26.88;54.51;100945.03;127225;1092;64122;-83
2021/06/29 07:02:28;;;;;;;13.87;8.67;;;;;;;26.92;54.29;100943.78;127613;1092;64115;-83
2021/06/29 07:05:16;;;;;;;16.10;9.17;;;;;;;26.93;54.28;100940.05;127300;1092;64147;-83
2021/06/29 07:07:45;;;;;;;15.70;9.40;;;;;;;26.97;54.38;100939.77;127672;1093;64656;-84
2021/06/29 07:10:20;;;;;;;;;;;;;;;26.97;54.26;100937.06;127559;1093;64112;-84
2021/06/29 07:13:07;;;;;;;14.50;8.80;;;;;;;26.98;54.15;100933.33;127659;1093;64327;-84
2021/06/29 07:15:47;;;;;;;13.03;8.60;;;;;;;26.97;54.50;100920.81;127209;1093;64048;-84
2021/06/29 07:18:43;;;;;;;11.90;8.30;;;;;;;26.98;54.04;100919.78;127313;1093;64339;-83
2021/06/29 07:21:26;;;;;;;;;;;;;;;;;;;;;
2021/06/29 07:24:15;;;;;;;12.63;8.17;;;;;;;26.96;54.02;100924.52;127402;1093;64533;-84
2021/06/29 07:27:09;;;;;;;17.65;8.75;;;;;;;26.95;53.99;100923.64;127304;1093;64147;-84
2021/06/29 07:29:59;;;;;;;16.10;8.67;;;;;;;26.95;54.20;100922.80;127303;1093;64208;-82
2021/06/29 07:32:55;;;;;;;12.27;8.30;;;;;;;26.94;54.05;100927.38;127254;1092;64272;-82
2021/06/29 07:35:29;;;;;;;13.37;8.90;;;;;;;26.92;53.88;100927.52;127679;1092;64125;-83
2021/06/29 07:38:08;;;;;;;12.60;8.70;;;;;;;26.92;54.16;100921.23;127154;1093;64121;-83
2021/06/29 07:41:06;;;;;;;14.47;8.57;;;;;;;26.93;54.09;100925.66;127210;1092;64301;-83
2021/06/29 07:43:45;;;;;;;11.23;8.97;;;;;;;26.92;54.11;100926.65;127117;1093;64332;-83
2021/06/29 07:46:36;;;;;;;12.20;7.57;;;;;;;26.91;53.91;100927.64;127281;1093;64162;-83
2021/06/29 07:49:14;;;;;;;13.33;8.73;;;;;;;26.92;53.92;100930.23;127245;1093;64370;-83
2021/06/29 07:51:52;;;;;;;;;;;;;;;26.91;53.89;100933.06;127633;1090;64182;-82
2021/06/29 07:55:01;;;;;;;10.47;8.13;;;;;;;26.90;54.10;100925.95;127854;1090;64223;-83
2021/06/29 07:57:48;;;;;;;10.37;7.80;;;;;;;26.90;54.27;100913.25;127587;1090;64272;-84
2021/06/29 08:00:48;;;;;;;12.20;8.50;;;;;;;26.90;54.14;100920.54;127673;1089;64242;-84
2021/06/29 08:03:15;;;;;;;11.83;8.10;;;;;;;26.89;54.17;100916.95;127836;1088;64259;-82
2021/06/29 08:05:51;;;;;;;10.87;7.63;;;;;;;26.89;54.10;100921.53;127974;1087;64131;-83
2021/06/29 08:08:41;;;;;;;13.97;7.77;;;;;;;26.88;54.25;100920.66;127835;1090;64342;-82
2021/06/29 08:11:35;;;;;;;11.83;7.40;;;;;;;26.88;54.25;100923.37;127836;1090;64316;-83
2021/06/29 08:14:30;;;;;;;10.55;7.40;;;;;;;26.88;54.29;100922.52;127798;1090;64291;-82
2021/06/29 08:17:26;;;;;;;12.80;8.17;;;;;;;26.87;54.15;100920.80;127707;1088;64385;-82
2021/06/29 08:19:55;;;;;;;8.57;7.03;;;;;;;26.87;54.34;100921.68;127870;1090;64911;-83
2021/06/29 08:22:24;;;;;;;8.27;7.33;;;;;;;26.88;54.13;100922.52;127688;1090;64294;-83
2021/06/29 08:25:03;;;;;;;10.67;7.47;;;;;;;26.88;54.35;100917.11;127541;1088;64295;-82
2021/06/29 08:27:30;;;;;;;9.80;7.07;;;;;;;26.89;54.33;100916.95;127707;1090;64361;-82
2021/06/29 08:29:58;;;;;;;9.57;7.00;;;;;;;26.88;54.13;100917.95;127693;1090;64489;-82
2021/06/29 08:32:48;;;;;;;9.07;6.90;;;;;;;26.88;53.88;100915.23;127562;1090;64152;-82
2021/06/29 08:35:20;;;;;;;8.67;5.90;;;;;;;26.90;54.35;100915.13;127319;1090;64166;-82
2021/06/29 08:37:47;;;;;;;8.83;5.97;;;;;;;26.93;54.46;100904.83;127381;1090;64160;-82
2021/06/29 08:40:22;;;;;;;13.10;7.10;;;;;;;26.97;54.57;100899.14;127460;1090;64205;-83
2021/06/29 08:42:53;;;;;;;10.23;7.03;;;;;;;26.98;54.68;100903.53;127495;1090;64206;-81
2021/06/29 08:45:20;;;;;;;11.97;7.40;;;;;;;27.01;54.33;100898.69;127441;1090;64218;-83
2021/06/29 08:47:46;;;;;;;11.30;6.80;;;;;;;27.05;54.51;100896.55;127720;1087;64227;-82
2021/06/29 08:50:13;;;;;;;9.57;6.30;;;;;;;27.06;54.09;100890.98;127724;1087;64157;-83
2021/06/29 08:52:49;;;;;;;10.57;7.40;;;;;;;27.08;53.98;100894.38;127768;1085;64172;-83
2021/06/29 08:55:18;;;;;;;8.33;6.75;;;;;;;27.10;54.10;100891.55;127584;1087;64459;-82
2021/06/29 08:57:53;;;;;;;10.27;7.10;;;;;;;27.10;53.98;100883.42;127761;1087;64444;-83
2021/06/29 09:00:30;;;;;;;9.17;6.63;;;;;;;27.10;53.90;100881.55;127817;1087;64118;-81
2021/06/29 09:02:56;;;;;;;8.23;6.60;;;;;;;27.09;53.69;100885.25;127739;1087;64182;-83
2021/06/29 09:05:28;;;;;;;9.35;7.00;;;;;;;27.09;53.69;100873.58;127562;1087;64197;-82
2021/06/29 09:08:06;;;;;;;11.60;7.43;;;;;;;27.08;53.62;100883.54;127600;1087;64142;-83
2021/06/29 09:10:32;;;;;;;10.60;7.50;;;;;;;27.07;53.63;100876.44;127800;1087;64160;-83
2021/06/29 09:13:01;;;;;;;11.13;6.30;;;;;;;27.07;53.65;100876.44;127749;1087;64102;-83
2021/06/29 09:15:39;;;;;;;9.47;6.40;;;;;;;27.06;53.44;100873.88;127989;1087;64095;-83
2021/06/29 09:18:11;;;;;;;7.77;6.53;;;;;;;27.06;53.69;100876.59;128052;1086;64115;-82
2021/06/29 09:21:14;;;;;;;8.07;6.00;;;;;;;27.06;53.65;100879.30;128257;1085;64076;-82
2021/06/29 09:23:48;;;;;;;8.63;7.40;;;;;;;27.05;53.48;100880.29;127587;1087;64186;-82
2021/06/29 09:26:16;;;;;;;8.10;6.37;;;;;;;27.05;53.61;100877.58;128130;1087;64163;-82
2021/06/29 09:29:05;;;;;;;9.30;7.27;;;;;;;27.04;53.55;100876.71;127805;1087;64300;-82
2021/06/29 09:31:43;;;;;;;9.50;7.03;;;;;;;27.03;53.50;100883.16;127791;1090;64288;-82
2021/06/29 09:34:13;;;;;;;11.07;7.40;;;;;;;27.02;53.41;100883.27;127597;1090;64140;-83
2021/06/29 09:36:50;;;;;;;9.20;6.87;;;;;;;27.01;53.41;100885.14;127574;1090;64260;-83
2021/06/29 09:39:25;;;;;;;9.67;6.80;;;;;;;27.02;53.39;100881.44;127643;1090;64319;-84
2021/06/29 09:42:10;;;;;;;9.40;6.73;;;;;;;27.01;53.31;100876.17;127762;1090;64563;-83
2021/06/29 09:44:37;;;;;;;10.30;7.87;;;;;;;26.99;53.20;100872.73;127726;1090;63953;-84
2021/06/29 09:47:29;;;;;;;11.90;8.60;;;;;;;26.99;53.29;100870.03;127626;1089;64166;-83
2021/06/29 09:50:02;;;;;;;12.73;9.03;;;;;;;26.97;53.14;100867.47;127521;1089;64147;-83
2021/06/29 09:52:55;;;;;;;10.20;9.10;;;;;;;26.96;53.32;100863.05;127930;1090;64105;-85
2021/06/29 09:56:04;;;;;;;11.63;9.50;;;;;;;26.95;53.38;100863.20;127759;1090;64083;-83
2021/06/29 09:58:45;;;;;;;11.37;9.43;;;;;;;26.95;53.45;100857.78;127719;1090;64371;-84
2021/06/29 10:01:25;;;;;;;11.70;8.60;;;;;;;26.92;53.45;100862.52;127704;1090;64275;-84
2021/06/29 10:04:15;;;;;;;11.97;9.70;;;;;;;26.92;53.23;100862.52;127591;1090;64595;-84
2021/06/29 10:06:47;;;;;;;12.67;9.67;;;;;;;26.91;53.19;100857.22;127573;1090;64313;-83
2021/06/29 10:09:16;;;;;;;10.05;8.50;;;;;;;26.90;53.31;100859.08;127733;1090;65875;-82
2021/06/29 10:11:53;;;;;;;10.87;8.57;;;;;;;26.90;53.22;100853.66;127754;1089;64196;-83
2021/06/29 10:14:42;;;;;;;9.53;7.90;;;;;;;26.89;53.05;100854.66;127739;1089;64163;-83
2021/06/29 10:17:21;;;;;;;8.10;7.20;;;;;;;26.89;52.52;100854.66;127815;1090;64045;-83
2021/06/29 10:22:48;;;;;;;9.93;8.50;;;;;;;26.89;52.45;100845.69;127653;1088;64325;-83
2021/06/29 10:25:19;;;;;;;9.30;8.30;;;;;;;26.90;52.61;100844.70;127612;1088;64448;-82
2021/06/29 10:27:47;;;;;;;10.40;7.33;;;;;;;26.90;52.43;100844.70;127616;1090;64099;-83
2021/06/29 10:30:17;;;;;;;8.80;7.63;;;;;;;26.90;52.42;100844.70;127742;1086;64178;-83
2021/06/29 10:32:45;;;;;;;9.03;7.67;;;;;;;26.91;52.33;100836.42;127938;1086;64191;-83
2021/06/29 10:35:11;;;;;;;10.43;8.30;;;;;;;26.91;52.46;100831.00;128178;1087;64257;-81
2021/06/29 10:37:42;;;;;;;15.03;7.87;;;;;;;26.91;52.34;100836.42;128115;1086;64194;-81
2021/06/29 10:40:40;;;;;;;8.63;7.50;;;;;;;26.91;52.47;100830.13;128080;1086;64217;-81
2021/06/29 10:43:10;;;;;;;8.00;6.80;;;;;;;26.91;52.39;100827.42;128174;1086;64218;-82
2021/06/29 10:45:59;;;;;;;8.47;7.00;;;;;;;26.91;52.38;100830.13;128164;1087;64231;-84
2021/06/29 10:48:27;;;;;;;7.90;6.57;;;;;;;26.92;52.64;100826.42;128183;1087;64229;-84
2021/06/29 10:51:18;;;;;;;8.05;6.85;;;;;;;26.91;52.36;100820.17;128288;1087;62612;-84
2021/06/29 10:53:45;;;;;;;7.23;6.43;;;;;;;26.92;52.52;100821.01;128231;1085;64304;-83
2021/06/29 10:56:26;;;;;;;9.30;7.10;;;;;;;26.92;52.54;100815.59;128396;1087;64358;-83
2021/06/29 10:59:13;;;;;;;8.17;6.40;;;;;;;26.91;52.68;100814.75;128316;1086;63981;-84
2021/06/29 11:01:51;;;;;;;;;;;;;;;;;;;;;
2021/06/29 11:04:54;;;;;;;8.23;6.37;;;;;;;26.89;52.53;100811.33;128189;1087;64277;-84
2021/06/29 11:07:41;;;;;;;7.53;6.17;;;;;;;26.89;52.65;100814.03;128226;1087;64196;-84
2021/06/29 11:10:37;;;;;;;8.47;6.00;;;;;;;26.89;52.68;100808.61;128128;1086;64048;-83
2021/06/29 11:13:14;;;;;;;8.47;6.07;;;;;;;26.89;52.84;100805.91;128134;1087;64209;-81
2021/06/29 11:16:14;;;;;;;6.90;6.00;;;;;;;26.89;52.95;100803.20;128266;1087;64008;-83
2021/06/29 11:18:54;;;;;;;7.33;5.83;;;;;;;26.90;52.93;100791.37;128307;1086;62221;-83
2021/06/29 11:21:30;;;;;;;7.50;5.93;;;;;;;26.89;52.91;100800.48;128364;1086;63919;-84
2021/06/29 11:24:55;;;;;;;7.87;6.50;;;;;;;26.89;52.74;100796.94;128318;1087;64147;-84
2021/06/29 11:28:12;;;;;;;7.83;6.13;;;;;;;26.88;52.81;100796.06;127849;1085;64109;-84
2021/06/29 11:31:13;;;;;;;8.93;6.30;;;;;;;26.88;52.67;100781.68;127928;1087;64157;-83
2021/06/29 11:34:30;;;;;;;7.63;6.00;;;;;;;26.88;52.95;100782.52;127747;1088;64243;-82
2021/06/29 11:37:24;;;;;;;7.53;6.00;;;;;;;26.88;52.71;100787.09;127795;1087;64275;-83
2021/06/29 11:39:58;;;;;;;7.70;6.07;;;;;;;26.86;52.47;100784.54;127775;1087;64256;-82
2021/06/29 11:42:31;;;;;;;8.60;6.30;;;;;;;26.88;52.72;100784.39;127790;1090;64264;-84
2021/06/29 11:45:08;;;;;;;8.27;5.93;;;;;;;26.88;52.76;100778.97;127739;1087;64147;-82
2021/06/29 11:47:52;;;;;;;8.30;6.67;;;;;;;26.88;52.81;100774.39;127736;1090;64150;-81
2021/06/29 11:50:28;;;;;;;8.37;6.17;;;;;;;26.88;52.67;100774.39;127723;1087;64390;-81
2021/06/29 11:53:16;;;;;;;7.90;6.40;;;;;;;26.88;52.63;100766.27;127719;1087;64294;-81
2021/06/29 11:55:50;;;;;;;7.65;6.28;;;;;;;26.88;52.70;100760.85;127807;1087;64138;-83
2021/06/29 11:59:07;;;;;;;8.10;6.35;;;;;;;26.89;52.70;100759.86;128025;1086;64256;-82
2021/06/29 12:01:43;;;;;;;7.13;6.20;;;;;;;26.89;52.76;100762.56;128274;1087;64214;-83
2021/06/29 12:04:33;;;;;;;8.10;6.00;;;;;;;26.89;52.64;100754.44;128304;1087;64134;-84
2021/06/29 12:07:11;;;;;;;7.63;6.13;;;;;;;26.89;52.59;100757.16;128249;1086;64288;-84
2021/06/29 12:09:38;;;;;;;7.13;6.28;;;;;;;26.89;52.63;100748.19;127899;1086;64371;-84
2021/06/29 12:12:48;;;;;;;7.67;6.33;;;;;;;26.89;52.50;100748.19;128289;1087;64267;-83
2021/06/29 12:15:52;;;;;;;7.07;5.73;;;;;;;26.89;52.42;100746.31;128259;1085;64137;-82
2021/06/29 12:18:46;;;;;;;6.80;6.10;;;;;;;26.88;52.56;100739.19;128283;1085;63960;-84
2021/06/29 12:21:32;;;;;;;7.43;6.13;;;;;;;26.89;52.46;100740.06;128187;1085;64176;-84
2021/06/29 12:24:13;;;;;;;6.67;5.90;;;;;;;26.88;52.38;100728.34;128078;1087;64032;-83
2021/06/29 12:26:49;;;;;;;;;;;;;;;26.88;52.35;100722.94;128217;1086;64115;-83
2021/06/29 12:29:28;;;;;;;7.33;5.83;;;;;;;26.88;52.47;100716.68;128191;1087;64192;-83
2021/06/29 12:32:25;;;;;;;7.23;5.73;;;;;;;26.89;52.37;100718.39;128210;1086;64188;-84
2021/06/29 12:35:13;;;;;;;7.17;6.03;;;;;;;26.89;52.23;100710.27;128193;1087;64141;-83
2021/06/29 12:38:15;;;;;;;7.23;5.90;;;;;;;26.90;52.01;100706.56;128304;1085;63994;-84
2021/06/29 12:41:19;;;;;;;6.70;6.00;;;;;;;26.90;52.08;100712.81;128297;1087;64111;-83
2021/06/29 12:44:19;;;;;;;7.33;5.87;;;;;;;26.91;52.03;100710.95;128170;1087;64095;-82
2021/06/29 12:46:46;;;;;;;6.97;5.93;;;;;;;26.92;52.07;100707.25;128177;1086;64131;-81
2021/06/29 12:49:33;;;;;;;8.03;6.20;;;;;;;26.92;52.14;100701.83;127801;1088;64157;-81
2021/06/29 12:52:29;;;;;;;6.90;5.90;;;;;;;26.95;52.15;100703.39;127538;1090;64519;-81
2021/06/29 12:55:18;;;;;;;7.43;5.70;;;;;;;26.95;52.01;100706.09;127802;1090;64448;-83
2021/06/29 12:58:23;;;;;;;7.77;6.10;;;;;;;26.95;51.91;100700.67;127790;1089;64312;-82
2021/06/29 13:01:01;;;;;;;7.03;5.80;;;;;;;26.97;51.68;100696.81;127558;1091;64166;-82
2021/06/29 13:04:07;;;;;;;6.73;5.77;;;;;;;26.97;51.83;100690.56;127472;1093;64144;-81
2021/06/29 13:06:38;;;;;;;7.97;6.10;;;;;;;26.97;51.74;100693.27;127508;1093;64407;-83
2021/06/29 13:09:21;;;;;;;7.40;5.83;;;;;;;26.98;51.97;100690.41;127333;1091;64374;-81
2021/06/29 13:11:55;;;;;;;8.07;6.10;;;;;;;27.00;51.67;100692.95;127325;1093;64260;-81
2021/06/29 13:14:24;;;;;;;8.83;6.00;;;;;;;27.00;51.84;100682.95;127276;1092;64150;-82
2021/06/29 13:17:03;;;;;;;7.83;5.80;;;;;;;27.00;51.88;100680.25;127369;1092;64176;-81
2021/06/29 13:19:30;;;;;;;7.00;5.30;;;;;;;27.02;51.78;100685.52;127474;1092;64240;-81
2021/06/29 13:22:00;;;;;;;6.30;5.60;;;;;;;27.03;52.05;100687.22;127427;1093;64019;-82
2021/06/29 13:24:49;;;;;;;7.30;6.00;;;;;;;27.04;51.77;100686.22;127511;1093;64321;-81
2021/06/29 13:27:27;;;;;;;9.40;6.13;;;;;;;27.04;51.97;100680.80;127547;1088;64182;-82
2021/06/29 13:30:11;;;;;;;6.40;5.80;;;;;;;27.04;52.04;100678.94;127595;1090;64166;-82
2021/06/29 13:32:39;;;;;;;6.77;5.30;;;;;;;27.06;51.88;100678.81;127597;1089;64469;-82
2021/06/29 13:35:16;;;;;;;6.60;5.60;;;;;;;27.06;52.20;100673.39;127513;1089;64199;-82
2021/06/29 13:37:57;;;;;;;7.60;6.30;;;;;;;27.06;51.99;100674.23;127605;1087;64191;-81
2021/06/29 13:40:54;;;;;;;7.53;5.73;;;;;;;27.07;52.33;100675.95;128164;1087;64211;-82
2021/06/29 13:43:24;;;;;;;7.20;5.90;;;;;;;27.08;52.34;100674.08;127869;1088;64127;-83
2021/06/29 13:45:56;;;;;;;7.47;5.77;;;;;;;27.09;52.26;100667.66;127741;1088;64323;-83